sensor_id;sensor_type;location;lat;lon;timestamp;pressure;altitude;pressure_sealevel;temperature;humidity
29879;BME280;16752;53.364;-1.488;2023-06-26T04:54:01;100360.25;;;21.27;44.20
29879;BME280;16752;53.364;-1.488;2023-06-26T07:01:51;100508.75;;;23.98;38.79
29879;BME280;16752;53.364;-1.488;2023-06-26T08:20:22;100479.88;;;24.37;34.71
29879;BME280;16752;53.364;-1.488;2023-06-26T08:51:16;100566.53;;;25.59;31.86
29879;BME280;16752;53.364;-1.488;2023-06-26T08:54:08;100538.94;;;25.02;33.52
29879;BME280;16752;53.364;-1.488;2023-06-26T08:57:20;100486.16;;;26.07;31.39
29879;BME280;16752;53.364;-1.488;2023-06-26T09:00:46;100494.34;;;26.95;30.91
29879;BME280;16752;53.364;-1.488;2023-06-26T09:03:59;100480.50;;;27.51;30.80
29879;BME280;16752;53.364;-1.488;2023-06-26T09:06:44;100573.66;;;27.38;30.53
29879;BME280;16752;53.364;-1.488;2023-06-26T09:09:50;100567.25;;;26.31;31.66
29879;BME280;16752;53.364;-1.488;2023-06-26T09:13:02;100505.75;;;27.10;30.56
29879;BME280;16752;53.364;-1.488;2023-06-26T09:15:49;100533.56;;;26.69;31.12
29879;BME280;16752;53.364;-1.488;2023-06-26T09:18:40;100565.38;;;26.31;31.18
29879;BME280;16752;53.364;-1.488;2023-06-26T09:24:57;100544.78;;;26.38;31.96
29879;BME280;16752;53.364;-1.488;2023-06-26T09:27:51;100549.63;;;27.17;30.45
29879;BME280;16752;53.364;-1.488;2023-06-26T09:31:00;100496.03;;;27.29;29.20
29879;BME280;16752;53.364;-1.488;2023-06-26T09:33:48;100545.50;;;27.48;28.84
29879;BME280;16752;53.364;-1.488;2023-06-26T09:36:33;100548.16;;;27.01;29.37
29879;BME280;16752;53.364;-1.488;2023-06-26T09:39:30;100540.50;;;26.16;30.28
29879;BME280;16752;53.364;-1.488;2023-06-26T09:42:14;100503.69;;;27.12;28.98
29879;BME280;16752;53.364;-1.488;2023-06-26T09:45:17;100575.47;;;28.44;27.47
29879;BME280;16752;53.364;-1.488;2023-06-26T09:48:07;100560.22;;;27.58;27.18
29879;BME280;16752;53.364;-1.488;2023-06-26T09:51:01;100529.97;;;27.50;26.70
29879;BME280;16752;53.364;-1.488;2023-06-26T09:53:59;100575.78;;;28.74;27.42
29879;BME280;16752;53.364;-1.488;2023-06-26T09:57:00;100599.56;;;28.06;26.75
29879;BME280;16752;53.364;-1.488;2023-06-26T10:00:28;100532.81;;;28.21;26.72
29879;BME280;16752;53.364;-1.488;2023-06-26T10:03:35;100592.69;;;29.64;24.78
29879;BME280;16752;53.364;-1.488;2023-06-26T10:06:41;100514.69;;;27.70;26.43
29879;BME280;16752;53.364;-1.488;2023-06-26T10:09:42;100557.75;;;27.70;27.86
29879;BME280;16752;53.364;-1.488;2023-06-26T10:17:03;100608.03;;;26.82;29.46
29879;BME280;16752;53.364;-1.488;2023-06-26T11:43:41;100619.16;;;29.80;25.53
29879;BME280;16752;53.364;-1.488;2023-06-26T11:46:42;100616.34;;;30.18;24.73
29879;BME280;16752;53.364;-1.488;2023-06-26T16:14:56;100748.09;;;33.23;20.68
29879;BME280;16752;53.364;-1.488;2023-06-26T16:22:09;100668.69;;;30.67;23.78
29879;BME280;16752;53.364;-1.488;2023-06-26T16:28:42;100663.44;;;29.41;25.19
29879;BME280;16752;53.364;-1.488;2023-06-26T16:35:44;100647.13;;;28.71;26.10
29879;BME280;16752;53.364;-1.488;2023-06-26T16:38:34;100715.19;;;29.69;25.09
29879;BME280;16752;53.364;-1.488;2023-06-26T16:41:19;100716.78;;;29.45;26.14
29879;BME280;16752;53.364;-1.488;2023-06-26T16:44:03;100649.97;;;28.96;25.54
29879;BME280;16752;53.364;-1.488;2023-06-26T16:46:56;100644.69;;;28.56;26.29
29879;BME280;16752;53.364;-1.488;2023-06-26T16:49:43;100696.09;;;28.55;27.54
29879;BME280;16752;53.364;-1.488;2023-06-26T16:52:31;100738.19;;;27.35;28.99
29879;BME280;16752;53.364;-1.488;2023-06-26T16:55:15;100665.81;;;26.65;29.82
29879;BME280;16752;53.364;-1.488;2023-06-26T17:01:47;100613.78;;;25.18;30.85
29879;BME280;16752;53.364;-1.488;2023-06-26T17:04:33;100650.41;;;26.80;29.32
29879;BME280;16752;53.364;-1.488;2023-06-26T17:08:04;100655.56;;;26.75;29.02
29879;BME280;16752;53.364;-1.488;2023-06-26T17:11:15;100629.47;;;26.06;29.59
29879;BME280;16752;53.364;-1.488;2023-06-26T17:13:59;100643.22;;;27.42;27.89
29879;BME280;16752;53.364;-1.488;2023-06-26T17:16:46;100691.53;;;26.74;28.93
29879;BME280;16752;53.364;-1.488;2023-06-26T17:20:05;100725.03;;;26.78;29.20
29879;BME280;16752;53.364;-1.488;2023-06-26T17:23:15;100733.22;;;26.63;29.76
29879;BME280;16752;53.364;-1.488;2023-06-26T17:26:31;100718.13;;;27.38;29.24
29879;BME280;16752;53.364;-1.488;2023-06-26T17:29:15;100668.09;;;27.57;28.13
29879;BME280;16752;53.364;-1.488;2023-06-26T17:31:59;100697.44;;;26.97;29.71
29879;BME280;16752;53.364;-1.488;2023-06-26T17:34:46;100657.47;;;27.35;27.92
29879;BME280;16752;53.364;-1.488;2023-06-26T17:37:33;100641.47;;;26.10;29.84
29879;BME280;16752;53.364;-1.488;2023-06-26T17:40:20;100744.59;;;25.95;31.04
29879;BME280;16752;53.364;-1.488;2023-06-26T17:43:09;100759.97;;;27.06;29.79
29879;BME280;16752;53.364;-1.488;2023-06-26T17:45:53;100680.00;;;26.24;29.86
29879;BME280;16752;53.364;-1.488;2023-06-26T17:49:00;100704.97;;;26.46;30.00
29879;BME280;16752;53.364;-1.488;2023-06-26T17:52:11;100700.88;;;26.85;29.21
